createdAt,value
2018-07-28T00:00:06.535Z,22.16
2018-07-28T00:01:06.540Z,22.12
2018-07-28T00:02:06.516Z,22.15
2018-07-28T00:03:06.503Z,22.04
2018-07-28T00:04:06.546Z,21.90
2018-07-28T00:05:06.508Z,21.93
2018-07-28T00:06:06.473Z,21.97
2018-07-28T00:07:06.470Z,21.78
2018-07-28T00:08:06.449Z,21.84
2018-07-28T00:09:06.490Z,21.74
2018-07-28T00:10:06.436Z,21.77
2018-07-28T00:11:06.431Z,21.81
2018-07-28T00:12:06.410Z,21.81
2018-07-28T00:13:06.404Z,21.84
2018-07-28T00:14:06.389Z,21.81
2018-07-28T00:15:06.566Z,21.80
2018-07-28T00:16:06.365Z,21.77
2018-07-28T00:17:06.360Z,21.66
2018-07-28T00:18:06.344Z,21.66
2018-07-28T00:19:06.356Z,21.66
2018-07-28T00:20:06.322Z,21.66
2018-07-28T00:21:06.389Z,21.67
2018-07-28T00:22:06.308Z,21.66
2018-07-28T00:23:06.297Z,21.62
2018-07-28T00:24:06.299Z,21.66
2018-07-28T00:25:06.273Z,21.60
2018-07-28T00:26:06.399Z,21.59
2018-07-28T00:27:06.331Z,21.63
2018-07-28T00:28:06.248Z,21.56
2018-07-28T00:29:06.234Z,21.62
2018-07-28T00:30:06.230Z,21.58
2018-07-28T00:31:06.204Z,21.51
2018-07-28T00:32:06.242Z,21.55
2018-07-28T00:33:06.192Z,21.55
2018-07-28T00:34:06.188Z,21.53
2018-07-28T00:35:06.172Z,21.44
2018-07-28T00:36:06.182Z,21.50
2018-07-28T00:37:06.187Z,21.44
2018-07-28T00:38:06.132Z,21.53
2018-07-28T00:39:06.133Z,21.55
2018-07-28T00:40:06.120Z,21.60
2018-07-28T00:41:06.106Z,21.62
2018-07-28T00:42:06.128Z,21.66
2018-07-28T00:43:06.113Z,21.56
2018-07-28T00:44:06.067Z,21.56
2018-07-28T00:45:06.056Z,21.48
2018-07-28T00:46:06.049Z,21.45
2018-07-28T00:47:06.047Z,21.29
2018-07-28T00:48:06.206Z,21.19
2018-07-28T00:49:06.025Z,21.11
2018-07-28T00:50:06.015Z,21.01
2018-07-28T00:51:05.990Z,20.95
2018-07-28T00:52:05.982Z,20.80
2018-07-28T00:53:05.984Z,20.70
2018-07-28T00:54:05.993Z,20.68
2018-07-28T00:55:05.974Z,20.63
2018-07-28T00:56:05.944Z,20.50
2018-07-28T00:57:05.932Z,20.49
2018-07-28T00:58:05.931Z,20.48
2018-07-28T00:59:05.984Z,20.34
2018-07-28T01:00:05.904Z,20.41
2018-07-28T01:01:05.913Z,20.39
2018-07-28T01:02:05.895Z,20.37
2018-07-28T01:03:05.868Z,20.44
2018-07-28T01:04:05.854Z,20.36
2018-07-28T01:05:05.873Z,20.37
2018-07-28T01:06:05.841Z,20.46
2018-07-28T01:07:05.819Z,20.37
2018-07-28T01:08:05.806Z,20.33
2018-07-28T01:09:05.809Z,20.46
2018-07-28T01:10:05.976Z,20.36
2018-07-28T01:11:05.779Z,20.42
2018-07-28T01:12:05.772Z,20.36
2018-07-28T01:13:05.762Z,20.39
2018-07-28T01:14:05.741Z,20.42
2018-07-28T01:15:05.746Z,20.37
2018-07-28T01:16:05.754Z,20.34
2018-07-28T01:17:05.711Z,20.41
2018-07-28T01:18:05.700Z,20.44
2018-07-28T01:19:05.690Z,20.41
2018-07-28T01:20:05.677Z,20.50
2018-07-28T01:21:05.714Z,20.49
2018-07-28T01:22:05.653Z,20.39
2018-07-28T01:23:05.665Z,20.49
2018-07-28T01:24:05.636Z,20.49
2018-07-28T01:25:05.660Z,20.56
2018-07-28T01:26:05.613Z,20.58
2018-07-28T01:27:05.665Z,20.68
2018-07-28T01:28:05.590Z,20.80
2018-07-28T01:29:05.592Z,20.79
2018-07-28T01:30:05.566Z,20.79
2018-07-28T01:31:05.560Z,20.79
2018-07-28T01:32:05.547Z,20.75
2018-07-28T01:33:05.569Z,20.80
2018-07-28T01:34:05.523Z,20.75
2018-07-28T01:35:05.544Z,20.74
2018-07-28T01:36:05.504Z,20.68
2018-07-28T01:37:05.492Z,20.60
2018-07-28T01:38:05.623Z,20.56
2018-07-28T01:39:05.478Z,20.52
2018-07-28T01:40:05.460Z,20.46
2018-07-28T01:41:05.454Z,20.49
2018-07-28T01:42:05.440Z,20.50
2018-07-28T01:43:05.445Z,20.48
2018-07-28T01:44:05.458Z,20.44
2018-07-28T01:45:05.419Z,20.44
2018-07-28T01:46:05.397Z,20.48
2018-07-28T01:47:05.403Z,20.50
2018-07-28T01:48:05.376Z,20.34
2018-07-28T01:49:05.563Z,20.34
2018-07-28T01:50:05.349Z,20.37
2018-07-28T01:51:05.339Z,20.39
2018-07-28T01:52:05.341Z,20.44
2018-07-28T01:53:05.316Z,20.46
2018-07-28T01:54:05.307Z,20.44
2018-07-28T01:55:05.351Z,20.37
2018-07-28T01:56:05.292Z,20.34
2018-07-28T01:57:05.272Z,20.30
2018-07-28T01:58:05.279Z,20.26
2018-07-28T01:59:05.257Z,20.18
2018-07-28T02:00:05.286Z,20.05
2018-07-28T02:01:05.230Z,20.07
2018-07-28T02:02:05.224Z,19.99
2018-07-28T02:03:05.212Z,19.90
2018-07-28T02:04:05.221Z,19.86
2018-07-28T02:05:05.199Z,19.82
2018-07-28T02:06:05.216Z,19.82
2018-07-28T02:07:05.193Z,19.81
2018-07-28T02:08:05.159Z,19.82
2018-07-28T02:09:05.155Z,19.93
2018-07-28T02:10:05.142Z,19.93
2018-07-28T02:11:05.264Z,19.93
2018-07-28T02:12:05.116Z,20.02
2018-07-28T02:13:05.103Z,19.87
2018-07-28T02:14:05.098Z,19.90
2018-07-28T02:15:05.085Z,19.82
2018-07-28T02:16:05.075Z,19.84
2018-07-28T02:17:05.091Z,19.90
2018-07-28T02:18:05.079Z,19.87
2018-07-28T02:19:05.034Z,19.93
2018-07-28T02:20:05.025Z,20.02
2018-07-28T02:21:05.027Z,19.93
2018-07-28T02:22:05.139Z,19.97
2018-07-28T02:23:05.003Z,19.93
2018-07-28T02:24:04.983Z,19.89
2018-07-28T02:25:04.968Z,19.89
2018-07-28T02:26:04.958Z,19.93
2018-07-28T02:27:04.953Z,19.75
2018-07-28T02:28:04.969Z,19.68
2018-07-28T02:29:04.923Z,19.72
2018-07-28T02:30:04.922Z,19.70
2018-07-28T02:31:04.907Z,19.77
2018-07-28T02:32:04.891Z,19.60
2018-07-28T02:33:05.024Z,19.64
2018-07-28T02:34:04.873Z,19.56
2018-07-28T02:35:04.859Z,19.56
2018-07-28T02:36:04.850Z,19.49
2018-07-28T02:37:04.847Z,19.41
2018-07-28T02:38:04.830Z,19.50
2018-07-28T02:39:04.865Z,19.42
2018-07-28T02:40:04.800Z,19.42
2018-07-28T02:41:04.797Z,19.45
2018-07-28T02:42:04.780Z,19.50
2018-07-28T02:43:04.770Z,19.45
2018-07-28T02:44:04.780Z,19.35
2018-07-28T02:45:04.783Z,19.37
2018-07-28T02:46:04.738Z,19.37
2018-07-28T02:47:04.724Z,19.37
2018-07-28T02:48:04.731Z,19.38
2018-07-28T02:49:04.704Z,19.38
2018-07-28T02:50:04.766Z,19.41
2018-07-28T02:51:04.689Z,19.34
2018-07-28T02:52:04.669Z,19.42
2018-07-28T02:53:04.662Z,19.35
2018-07-28T02:54:04.654Z,19.38
2018-07-28T02:55:04.636Z,19.35
2018-07-28T02:56:04.667Z,19.31
2018-07-28T02:57:04.621Z,19.26
2018-07-28T02:58:04.605Z,19.26
2018-07-28T02:59:04.611Z,19.34
2018-07-28T03:00:04.588Z,19.34
2018-07-28T03:01:04.619Z,19.35
2018-07-28T03:02:04.567Z,19.44
2018-07-28T03:03:04.556Z,19.49
2018-07-28T03:04:04.541Z,19.72
2018-07-28T03:05:04.532Z,19.92
2018-07-28T03:06:04.516Z,20.02
2018-07-28T03:07:04.545Z,20.07
2018-07-28T03:08:04.495Z,20.15
2018-07-28T03:09:04.486Z,20.11
2018-07-28T03:10:04.473Z,19.93
2018-07-28T03:11:04.475Z,20.00
2018-07-28T03:12:04.508Z,19.92
2018-07-28T03:13:04.449Z,19.93
2018-07-28T03:14:04.432Z,19.77
2018-07-28T03:15:04.430Z,19.64
2018-07-28T03:16:04.415Z,19.71
2018-07-28T03:17:04.400Z,19.68
2018-07-28T03:18:04.448Z,19.68
2018-07-28T03:19:04.385Z,19.71
2018-07-28T03:20:04.367Z,19.82
2018-07-28T03:21:04.352Z,19.87
2018-07-28T03:22:04.349Z,19.89
2018-07-28T03:23:04.517Z,19.97
2018-07-28T03:24:04.321Z,19.93
2018-07-28T03:25:04.318Z,19.92
2018-07-28T03:26:04.312Z,19.68
2018-07-28T03:27:04.288Z,19.53
2018-07-28T03:28:04.284Z,19.52
2018-07-28T03:29:04.304Z,19.34
2018-07-28T03:30:04.271Z,19.38
2018-07-28T03:31:04.255Z,19.23
2018-07-28T03:32:04.253Z,19.23
2018-07-28T03:33:04.235Z,19.19
2018-07-28T03:34:04.269Z,19.22
2018-07-28T03:35:04.200Z,19.13
2018-07-28T03:36:04.224Z,19.13
2018-07-28T03:37:04.202Z,19.04
2018-07-28T03:38:04.185Z,19.01
2018-07-28T03:39:04.159Z,19.08
2018-07-28T03:40:04.278Z,19.05
2018-07-28T03:41:04.136Z,19.01
2018-07-28T03:42:04.131Z,18.94
2018-07-28T03:43:04.135Z,18.96
2018-07-28T03:44:04.105Z,18.97
2018-07-28T03:45:04.115Z,18.97
2018-07-28T03:46:04.121Z,18.96
2018-07-28T03:47:04.071Z,19.00
2018-07-28T03:48:04.072Z,19.12
2018-07-28T03:49:04.051Z,19.19
2018-07-28T03:50:04.040Z,19.30
2018-07-28T03:51:04.080Z,19.42
2018-07-28T03:52:04.021Z,19.41
2018-07-28T03:53:04.007Z,19.45
2018-07-28T03:54:04.003Z,19.42
2018-07-28T03:55:03.994Z,19.34
2018-07-28T03:56:04.025Z,19.26
2018-07-28T03:57:04.156Z,19.38
2018-07-28T03:58:03.952Z,19.34
2018-07-28T03:59:03.943Z,19.38
2018-07-28T04:00:03.951Z,19.34
2018-07-28T04:01:03.928Z,19.41
2018-07-28T04:02:03.921Z,19.37
2018-07-28T04:03:03.954Z,19.35
2018-07-28T04:04:03.944Z,19.23
2018-07-28T04:05:03.879Z,19.39
2018-07-28T04:06:03.872Z,19.38
2018-07-28T04:07:03.856Z,19.39
2018-07-28T04:08:04.045Z,19.45
2018-07-28T04:09:03.850Z,19.54
2018-07-28T04:10:03.824Z,19.49
2018-07-28T04:11:03.816Z,19.53
2018-07-28T04:12:03.817Z,19.47
2018-07-28T04:13:03.799Z,19.57
2018-07-28T04:14:03.827Z,19.56
2018-07-28T04:15:03.777Z,19.56
2018-07-28T04:16:03.761Z,19.53
2018-07-28T04:17:03.772Z,19.52
2018-07-28T04:18:03.741Z,19.41
2018-07-28T04:19:03.801Z,19.44
2018-07-28T04:20:03.727Z,19.37
2018-07-28T04:21:03.738Z,19.56
2018-07-28T04:22:03.697Z,19.53
2018-07-28T04:23:03.696Z,19.57
2018-07-28T04:24:03.678Z,19.44
2018-07-28T04:25:03.709Z,19.47
2018-07-28T04:26:03.669Z,19.34
2018-07-28T04:27:03.642Z,19.35
2018-07-28T04:28:03.631Z,19.24
2018-07-28T04:29:03.629Z,19.26
2018-07-28T04:30:03.648Z,19.35
2018-07-28T04:31:03.596Z,19.44
2018-07-28T04:32:03.589Z,19.53
2018-07-28T04:33:03.575Z,19.59
2018-07-28T04:34:03.576Z,19.67
2018-07-28T04:35:03.560Z,19.72
2018-07-28T04:36:03.729Z,19.67
2018-07-28T04:37:03.597Z,19.67
2018-07-28T04:38:03.529Z,19.79
2018-07-28T04:39:03.508Z,19.84
2018-07-28T04:40:03.501Z,19.93
2018-07-28T04:41:03.503Z,19.93
2018-07-28T04:42:03.525Z,19.99
2018-07-28T04:43:03.464Z,20.14
2018-07-28T04:44:03.597Z,19.96
2018-07-28T04:45:03.447Z,20.05
2018-07-28T04:46:03.435Z,19.94
2018-07-28T04:47:03.429Z,19.87
2018-07-28T04:48:03.446Z,19.93
2018-07-28T04:49:03.405Z,19.86
2018-07-28T04:50:03.387Z,19.84
2018-07-28T04:51:03.380Z,19.78
2018-07-28T04:52:03.371Z,19.74
2018-07-28T04:53:03.395Z,19.64
2018-07-28T04:54:03.344Z,19.81
2018-07-28T04:55:03.335Z,19.77
2018-07-28T04:56:03.323Z,19.79
2018-07-28T04:57:03.310Z,19.87
2018-07-28T04:58:03.314Z,19.87
2018-07-28T04:59:03.332Z,19.81
2018-07-28T05:00:03.278Z,19.79
2018-07-28T05:01:03.283Z,19.74
2018-07-28T05:02:03.255Z,19.82
2018-07-28T05:03:03.247Z,19.70
2018-07-28T05:04:03.241Z,19.81
2018-07-28T05:05:03.263Z,19.84
2018-07-28T05:06:03.218Z,19.89
2018-07-28T05:07:03.215Z,20.00
2018-07-28T05:08:03.189Z,19.94
2018-07-28T05:09:03.181Z,19.92
2018-07-28T05:10:03.298Z,19.99
2018-07-28T05:11:03.158Z,20.12
2018-07-28T05:12:03.162Z,20.15
2018-07-28T05:13:03.135Z,20.25
2018-07-28T05:14:03.128Z,20.34
2018-07-28T05:15:03.119Z,20.19
2018-07-28T05:16:03.451Z,20.27
2018-07-28T05:17:03.094Z,20.29
2018-07-28T05:18:03.089Z,20.32
2018-07-28T05:19:03.072Z,20.30
2018-07-28T05:20:03.061Z,20.27
2018-07-28T05:21:03.059Z,20.23
2018-07-28T05:22:03.074Z,20.33
2018-07-28T05:23:03.033Z,20.34
2018-07-28T05:24:03.021Z,20.33
2018-07-28T05:25:03.008Z,20.39
2018-07-28T05:26:02.997Z,20.36
2018-07-28T05:27:03.360Z,20.41
2018-07-28T05:28:02.978Z,20.36
2018-07-28T05:29:02.965Z,20.44
2018-07-28T05:30:02.961Z,20.39
2018-07-28T05:31:02.946Z,20.52
2018-07-28T05:32:02.933Z,20.79
2018-07-28T05:33:02.960Z,21.00
2018-07-28T05:34:02.951Z,21.14
2018-07-28T05:35:02.900Z,21.29
2018-07-28T05:36:02.902Z,21.43
2018-07-28T05:37:02.912Z,21.48
2018-07-28T05:38:03.064Z,21.59
2018-07-28T05:39:02.918Z,21.51
2018-07-28T05:40:02.846Z,21.55
2018-07-28T05:41:02.839Z,21.51
2018-07-28T05:42:02.844Z,21.45
2018-07-28T05:43:02.815Z,21.28
2018-07-28T05:44:02.852Z,21.22
2018-07-28T05:45:02.802Z,21.25
2018-07-28T05:46:02.783Z,21.23
2018-07-28T05:47:02.774Z,21.23
2018-07-28T05:48:02.767Z,21.35
2018-07-28T05:49:02.757Z,21.55
2018-07-28T05:50:02.780Z,21.78
2018-07-28T05:51:02.729Z,21.81
2018-07-28T05:52:02.717Z,21.75
2018-07-28T05:53:02.707Z,21.84
2018-07-28T05:54:02.695Z,22.01
2018-07-28T05:55:02.716Z,22.33
2018-07-28T05:56:02.681Z,22.53
2018-07-28T05:57:02.667Z,21.97
2018-07-28T05:58:02.652Z,21.93
2018-07-28T05:59:02.642Z,21.91
2018-07-28T06:00:02.713Z,21.82
2018-07-28T06:01:02.654Z,21.85
2018-07-28T06:02:02.623Z,21.85
2018-07-28T06:03:02.624Z,21.94
2018-07-28T06:04:02.596Z,21.96
2018-07-28T06:05:02.578Z,21.84
2018-07-28T06:06:02.896Z,21.78
2018-07-28T06:07:02.553Z,21.82
2018-07-28T06:08:02.554Z,21.90
2018-07-28T06:09:02.531Z,21.96
2018-07-28T06:10:02.520Z,21.80
2018-07-28T06:11:02.525Z,21.97
2018-07-28T06:12:02.541Z,22.18
2018-07-28T06:13:02.486Z,22.23
2018-07-28T06:14:02.515Z,22.30
2018-07-28T06:15:02.466Z,22.44
2018-07-28T06:16:02.455Z,22.46
2018-07-28T06:17:02.484Z,22.53
2018-07-28T06:18:02.434Z,22.67
2018-07-28T06:19:02.428Z,22.70
2018-07-28T06:20:02.420Z,22.78
2018-07-28T06:21:02.401Z,22.91
2018-07-28T06:22:02.443Z,22.98
2018-07-28T06:23:02.411Z,23.14
2018-07-28T06:24:02.399Z,23.06
2018-07-28T06:25:02.372Z,23.21
2018-07-28T06:26:02.445Z,23.28
2018-07-28T06:27:02.337Z,23.33
2018-07-28T06:28:02.711Z,23.31
2018-07-28T06:29:02.319Z,23.44
2018-07-28T06:30:02.311Z,23.51
2018-07-28T06:31:02.297Z,23.56
2018-07-28T06:32:02.408Z,23.70
2018-07-28T06:33:02.276Z,23.66
2018-07-28T06:34:02.327Z,23.61
2018-07-28T06:35:02.247Z,23.70
2018-07-28T06:36:02.244Z,23.61
2018-07-28T06:37:02.237Z,23.81
2018-07-28T06:38:02.215Z,23.82
2018-07-28T06:39:02.319Z,23.94
2018-07-28T06:40:02.201Z,24.00
2018-07-28T06:41:02.194Z,24.06
2018-07-28T06:42:02.173Z,24.16
2018-07-28T06:43:02.168Z,24.18
2018-07-28T06:44:02.155Z,24.25
2018-07-28T06:45:02.179Z,24.40
2018-07-28T06:46:02.233Z,24.33
2018-07-28T06:47:02.141Z,24.34
2018-07-28T06:48:02.132Z,24.36
2018-07-28T06:49:02.137Z,24.31
2018-07-28T06:50:02.136Z,24.36
2018-07-28T06:51:02.110Z,24.36
2018-07-28T06:52:02.094Z,24.55
2018-07-28T06:53:02.056Z,24.65
2018-07-28T06:54:02.088Z,24.84
2018-07-28T06:55:02.043Z,24.99
2018-07-28T06:56:02.076Z,25.12
2018-07-28T06:57:02.019Z,25.27
2018-07-28T06:58:02.010Z,25.40
2018-07-28T06:59:02.001Z,25.58
2018-07-28T07:00:02.003Z,25.52
2018-07-28T07:01:01.970Z,25.56
2018-07-28T07:02:02.001Z,25.52
2018-07-28T07:03:01.950Z,25.41
2018-07-28T07:04:02.777Z,25.21
2018-07-28T07:05:01.929Z,25.22
2018-07-28T07:06:01.931Z,25.21
2018-07-28T07:07:01.995Z,25.04
2018-07-28T07:08:01.891Z,25.01
2018-07-28T07:09:01.896Z,25.12
2018-07-28T07:10:01.871Z,25.04
2018-07-28T07:11:01.862Z,24.94
2018-07-28T07:12:01.961Z,24.79
2018-07-28T07:13:01.838Z,24.84
2018-07-28T07:14:01.853Z,24.94
2018-07-28T07:15:01.900Z,25.09
2018-07-28T07:16:01.806Z,25.26
2018-07-28T07:17:01.797Z,25.27
2018-07-28T07:18:01.833Z,25.45
2018-07-28T07:19:01.807Z,25.51
2018-07-28T07:20:01.967Z,25.63
2018-07-28T07:21:01.760Z,25.71
2018-07-28T07:22:01.744Z,25.58
2018-07-28T07:23:01.801Z,25.51
2018-07-28T07:24:01.783Z,25.45
2018-07-28T07:25:01.716Z,25.51
2018-07-28T07:26:01.714Z,25.41
2018-07-28T07:27:01.689Z,25.26
2018-07-28T07:28:01.696Z,25.40
2018-07-28T07:29:01.707Z,25.53
2018-07-28T07:30:01.665Z,25.53
2018-07-28T07:31:02.092Z,25.67
2018-07-28T07:32:01.633Z,25.64
2018-07-28T07:33:01.633Z,25.70
2018-07-28T07:34:01.616Z,25.82
2018-07-28T07:35:01.634Z,25.74
2018-07-28T07:36:01.705Z,25.63
2018-07-28T07:37:01.588Z,25.71
2018-07-28T07:38:01.569Z,25.74
2018-07-28T07:39:01.563Z,25.83
2018-07-28T07:40:01.838Z,25.92
2018-07-28T07:41:01.552Z,25.81
2018-07-28T07:42:01.569Z,25.67
2018-07-28T07:43:01.521Z,25.63
2018-07-28T07:44:01.586Z,25.68
2018-07-28T07:45:01.498Z,25.85
2018-07-28T07:46:01.517Z,25.93
2018-07-28T07:47:01.486Z,25.96
2018-07-28T07:48:01.490Z,26.11
2018-07-28T07:49:01.460Z,26.08
2018-07-28T07:50:01.448Z,26.20
2018-07-28T07:51:01.482Z,26.10
2018-07-28T07:52:01.424Z,26.10
2018-07-28T07:53:01.419Z,26.16
2018-07-28T07:54:01.563Z,26.11
2018-07-28T07:55:01.629Z,26.00
2018-07-28T07:56:01.382Z,26.07
2018-07-28T07:57:01.445Z,26.12
2018-07-28T07:58:01.371Z,26.21
2018-07-28T07:59:01.361Z,26.26
2018-07-28T08:00:01.384Z,26.34
2018-07-28T08:01:01.339Z,26.43
2018-07-28T08:02:01.375Z,26.63
2018-07-28T08:03:01.311Z,26.65
2018-07-28T08:04:01.300Z,26.78
2018-07-28T08:05:01.301Z,26.95
2018-07-28T08:06:01.307Z,27.07
2018-07-28T08:07:01.265Z,27.30
2018-07-28T08:08:01.438Z,27.47
2018-07-28T08:09:01.246Z,27.75
2018-07-28T08:10:01.243Z,28.09
2018-07-28T08:11:01.231Z,28.32
2018-07-28T08:12:01.247Z,28.57
2018-07-28T08:13:01.221Z,28.59
2018-07-28T08:14:01.287Z,28.80
2018-07-28T08:15:01.189Z,29.15
2018-07-28T08:16:01.171Z,29.55
2018-07-28T08:17:01.182Z,29.93
2018-07-28T08:18:01.159Z,30.21
2018-07-28T08:19:01.182Z,29.98
2018-07-28T08:20:01.136Z,30.17
2018-07-28T08:21:01.188Z,30.21
2018-07-28T08:22:01.114Z,30.36
2018-07-28T08:23:01.114Z,30.48
2018-07-28T08:24:01.244Z,30.13
2018-07-28T08:25:01.078Z,30.33
2018-07-28T08:26:01.072Z,30.51
2018-07-28T08:27:01.061Z,30.33
2018-07-28T08:28:01.048Z,30.56
2018-07-28T08:29:01.044Z,29.91
2018-07-28T08:30:01.100Z,29.77
2018-07-28T08:31:01.017Z,29.63
2018-07-28T08:32:01.008Z,29.49
2018-07-28T08:33:01.003Z,29.39
2018-07-28T08:34:00.988Z,29.24
2018-07-28T08:35:00.987Z,29.21
2018-07-28T08:36:01.030Z,29.56
2018-07-28T08:37:00.971Z,30.78
2018-07-28T08:38:00.967Z,31.63
2018-07-28T08:39:00.941Z,32.11
2018-07-28T08:40:01.004Z,32.73
2018-07-28T08:41:00.955Z,33.49
2018-07-28T08:42:00.940Z,34.29
2018-07-28T08:43:00.898Z,34.90
2018-07-28T08:44:00.910Z,35.23
2018-07-28T08:45:00.880Z,35.20
2018-07-28T08:46:00.913Z,34.50
2018-07-28T08:47:00.866Z,34.01
2018-07-28T08:48:00.853Z,33.70
2018-07-28T08:49:00.855Z,33.63
2018-07-28T08:50:00.846Z,34.26
2018-07-28T08:51:00.874Z,34.20
2018-07-28T08:52:00.846Z,34.63
2018-07-28T08:53:00.807Z,35.46
2018-07-28T08:54:00.803Z,35.77
2018-07-28T08:55:00.779Z,36.02
2018-07-28T08:56:01.024Z,36.40
2018-07-28T08:57:00.812Z,36.78
2018-07-28T08:58:00.756Z,37.05
2018-07-28T08:59:00.744Z,37.32
2018-07-28T09:00:00.740Z,37.04
2018-07-28T09:01:00.731Z,36.52
2018-07-28T09:02:00.713Z,36.14
2018-07-28T09:03:00.771Z,35.31
2018-07-28T09:04:00.697Z,35.16
2018-07-28T09:05:00.686Z,35.53
2018-07-28T09:06:00.702Z,36.03
2018-07-28T09:07:00.670Z,36.63
2018-07-28T09:08:00.746Z,36.93
2018-07-28T09:09:00.651Z,37.32
2018-07-28T09:10:00.638Z,37.79
2018-07-28T09:11:00.633Z,38.42
2018-07-28T09:12:00.623Z,38.36
2018-07-28T09:13:00.640Z,38.45
2018-07-28T09:14:00.666Z,39.01
2018-07-28T09:15:00.597Z,38.69
2018-07-28T09:16:00.590Z,38.55
2018-07-28T09:17:00.582Z,38.86
2018-07-28T09:18:00.575Z,39.26
2018-07-28T09:19:00.618Z,39.64
2018-07-28T09:20:00.550Z,39.35
2018-07-28T09:21:00.537Z,39.11
2018-07-28T09:22:00.538Z,39.30
2018-07-28T09:23:00.534Z,38.93
2018-07-28T09:24:00.511Z,38.64
2018-07-28T09:25:00.557Z,38.67
2018-07-28T09:26:00.509Z,37.82
2018-07-28T09:27:00.489Z,37.88
2018-07-28T09:28:00.475Z,37.16
2018-07-28T09:29:00.491Z,35.91
2018-07-28T09:30:00.462Z,35.16
2018-07-28T09:31:00.495Z,34.66
2018-07-28T09:32:00.456Z,35.13
2018-07-28T09:33:00.449Z,35.95
2018-07-28T09:34:00.423Z,36.48
2018-07-28T09:35:00.418Z,36.70
2018-07-28T09:36:00.451Z,37.16
2018-07-28T09:37:00.440Z,37.76
2018-07-28T09:38:00.395Z,37.41
2018-07-28T09:39:00.397Z,36.45
2018-07-28T09:40:00.375Z,35.83
2018-07-28T09:41:00.557Z,35.77
2018-07-28T09:42:00.358Z,35.85
2018-07-28T09:43:00.357Z,36.06
2018-07-28T09:44:00.336Z,36.13
2018-07-28T09:45:00.355Z,36.25
2018-07-28T09:46:00.349Z,36.51
2018-07-28T09:47:00.414Z,36.82
2018-07-28T09:48:00.607Z,36.63
2018-07-28T09:49:00.300Z,35.97
2018-07-28T09:50:00.289Z,35.26
2018-07-28T09:51:00.277Z,34.25
2018-07-28T09:52:00.289Z,33.84
2018-07-28T09:53:14.845Z,33.60
2018-07-28T09:54:00.249Z,33.42
2018-07-28T09:55:00.310Z,33.32
2018-07-28T09:56:00.279Z,33.36
2018-07-28T09:57:00.223Z,33.32
2018-07-28T09:58:00.350Z,33.10
2018-07-28T09:59:00.351Z,33.32
2018-07-28T10:00:00.192Z,32.64
2018-07-28T10:01:00.182Z,32.33
2018-07-28T10:02:00.188Z,32.05
2018-07-28T10:03:00.356Z,31.70
2018-07-28T10:04:00.158Z,31.45
2018-07-28T10:05:00.152Z,31.17
2018-07-28T10:06:00.142Z,31.04
2018-07-28T10:07:00.127Z,30.97
2018-07-28T10:08:00.128Z,31.08
2018-07-28T10:09:00.368Z,30.92
2018-07-28T10:10:00.098Z,30.55
2018-07-28T10:11:00.155Z,30.60
2018-07-28T10:12:00.074Z,30.59
2018-07-28T10:13:00.079Z,30.39
2018-07-28T10:14:00.067Z,30.35
2018-07-28T10:15:00.082Z,30.22
2018-07-28T10:16:00.063Z,30.21
2018-07-28T10:17:00.073Z,30.08
2018-07-28T10:18:00.018Z,30.05
2018-07-28T10:19:00.060Z,30.07
2018-07-28T10:20:00.227Z,30.17
2018-07-28T10:20:59.988Z,30.17
2018-07-28T10:21:59.977Z,30.15
2018-07-28T10:23:00.066Z,30.15
2018-07-28T10:23:59.983Z,30.14
2018-07-28T10:24:59.944Z,30.18
2018-07-28T10:26:00.014Z,30.53
2018-07-28T10:26:59.935Z,30.86
2018-07-28T10:28:00.087Z,31.89
2018-07-28T10:28:59.940Z,32.69
2018-07-28T10:30:00.006Z,33.37
2018-07-28T10:31:00.133Z,34.20
2018-07-28T10:31:59.881Z,34.57
2018-07-28T10:32:59.876Z,34.66
2018-07-28T10:33:59.857Z,34.38
2018-07-28T10:34:59.856Z,34.34
2018-07-28T10:35:59.851Z,33.76
2018-07-28T10:37:00.013Z,33.44
2018-07-28T10:37:59.818Z,33.09
2018-07-28T10:38:59.814Z,33.16
2018-07-28T10:39:59.800Z,32.63
2018-07-28T10:40:59.798Z,32.53
2018-07-28T10:41:59.788Z,32.63
2018-07-28T10:42:59.804Z,32.54
2018-07-28T10:43:59.760Z,32.46
2018-07-28T10:44:59.754Z,32.64
2018-07-28T10:45:59.742Z,32.16
2018-07-28T10:46:59.729Z,32.21
2018-07-28T10:47:59.804Z,32.64
2018-07-28T10:48:59.741Z,32.51
2018-07-28T10:49:59.703Z,32.31
2018-07-28T10:50:59.694Z,32.63
2018-07-28T10:51:59.734Z,32.91
2018-07-28T10:52:59.712Z,33.33
2018-07-28T10:53:59.690Z,33.82
2018-07-28T10:54:59.651Z,34.73
2018-07-28T10:55:59.648Z,34.70
2018-07-28T10:56:59.633Z,35.12
2018-07-28T10:57:59.920Z,35.88
2018-07-28T10:58:59.812Z,36.61
2018-07-28T10:59:59.635Z,36.85
2018-07-28T11:00:59.595Z,37.23
2018-07-28T11:01:59.587Z,37.27
2018-07-28T11:02:59.583Z,36.82
2018-07-28T11:03:59.577Z,36.82
2018-07-28T11:04:59.613Z,36.60
2018-07-28T11:05:59.551Z,36.81
2018-07-28T11:06:59.560Z,37.55
2018-07-28T11:07:59.772Z,37.88
2018-07-28T11:08:59.578Z,38.69
2018-07-28T11:09:59.887Z,38.54
2018-07-28T11:10:59.509Z,38.18
2018-07-28T11:12:00.501Z,37.54
2018-07-28T11:12:59.550Z,37.27
2018-07-28T11:13:59.480Z,35.84
2018-07-28T11:14:59.698Z,35.34
2018-07-28T11:15:59.459Z,35.20
2018-07-28T11:16:59.456Z,34.90
2018-07-28T11:17:59.449Z,35.29
2018-07-28T11:18:59.501Z,34.75
2018-07-28T11:19:59.448Z,34.62
2018-07-28T11:20:59.608Z,35.07
2018-07-28T11:21:59.415Z,35.72
2018-07-28T11:22:59.418Z,35.92
2018-07-28T11:23:59.407Z,35.81
2018-07-28T11:24:59.382Z,35.76
2018-07-28T11:25:59.408Z,34.78
2018-07-28T11:26:59.401Z,34.34
2018-07-28T11:27:59.357Z,33.86
2018-07-28T11:28:59.379Z,33.84
2018-07-28T11:29:59.341Z,34.10
2018-07-28T11:30:59.333Z,34.26
2018-07-28T11:31:59.494Z,34.56
2018-07-28T11:32:59.323Z,34.19
2018-07-28T11:33:59.301Z,33.89
2018-07-28T11:34:59.299Z,33.64
2018-07-28T11:35:59.325Z,33.84
2018-07-28T11:36:59.280Z,34.37
2018-07-28T11:37:59.417Z,34.78
2018-07-28T11:38:59.302Z,35.10
2018-07-28T11:39:59.248Z,35.42
2018-07-28T11:40:59.244Z,35.65
2018-07-28T11:41:59.253Z,35.84
2018-07-28T11:42:59.232Z,36.07
2018-07-28T11:43:59.940Z,35.51
2018-07-28T11:44:59.233Z,34.78
2018-07-28T11:45:59.275Z,34.59
2018-07-28T11:46:59.183Z,34.56
2018-07-28T11:47:59.178Z,34.38
2018-07-28T11:48:59.217Z,34.00
2018-07-28T11:49:59.155Z,33.97
2018-07-28T11:50:59.202Z,34.13
2018-07-28T11:51:59.146Z,33.92
2018-07-28T11:52:59.145Z,33.54
2018-07-28T11:53:59.492Z,32.98
2018-07-28T11:54:59.130Z,32.77
2018-07-28T11:55:59.103Z,32.70
2018-07-28T11:56:59.090Z,32.46
2018-07-28T11:57:59.145Z,32.65
2018-07-28T11:58:59.081Z,32.90
2018-07-28T11:59:59.111Z,32.91
2018-07-28T12:00:59.055Z,32.68
2018-07-28T12:01:59.050Z,32.69
2018-07-28T12:02:59.035Z,32.73
2018-07-28T12:03:59.038Z,32.83
2018-07-28T12:04:59.033Z,33.10
2018-07-28T12:05:59.045Z,32.88
2018-07-28T12:06:58.999Z,32.42
2018-07-28T12:07:58.985Z,32.50
2018-07-28T12:08:58.980Z,32.90
2018-07-28T12:09:58.992Z,33.27
2018-07-28T12:10:59.004Z,33.62
2018-07-28T12:11:58.947Z,33.55
2018-07-28T12:12:58.942Z,33.62
2018-07-28T12:13:59.061Z,33.44
2018-07-28T12:14:58.935Z,33.49
2018-07-28T12:15:58.916Z,33.39
2018-07-28T12:16:58.961Z,33.54
2018-07-28T12:17:59.125Z,33.82
2018-07-28T12:18:58.885Z,34.06
2018-07-28T12:19:58.891Z,33.20
2018-07-28T12:20:58.878Z,32.95
2018-07-28T12:21:59.263Z,32.83
2018-07-28T12:22:58.856Z,32.65
2018-07-28T12:23:58.948Z,32.36
2018-07-28T12:24:58.854Z,32.36
2018-07-28T12:25:58.840Z,32.19
2018-07-28T12:26:59.322Z,32.20
2018-07-28T12:27:58.875Z,33.07
2018-07-28T12:28:58.798Z,33.82
2018-07-28T12:29:58.791Z,33.64
2018-07-28T12:30:58.814Z,33.44
2018-07-28T12:31:58.792Z,33.70
2018-07-28T12:32:58.750Z,34.75
2018-07-28T12:33:58.778Z,35.35
2018-07-28T12:34:58.814Z,35.31
2018-07-28T12:35:58.726Z,34.90
2018-07-28T12:36:58.730Z,34.03
2018-07-28T12:37:58.700Z,33.58
2018-07-28T12:38:58.886Z,32.95
2018-07-28T12:39:58.690Z,32.17
2018-07-28T12:40:58.712Z,31.59
2018-07-28T12:41:58.663Z,31.02
2018-07-28T12:42:58.658Z,30.85
2018-07-28T12:43:58.668Z,30.78
2018-07-28T12:44:58.696Z,30.68
2018-07-28T12:45:58.687Z,30.56
2018-07-28T12:46:58.617Z,30.43
2018-07-28T12:47:58.605Z,30.58
2018-07-28T12:48:58.608Z,30.71
2018-07-28T12:49:58.588Z,30.77
2018-07-28T12:50:58.612Z,30.93
2018-07-28T12:51:58.565Z,31.33